createdAt,value
2018-07-06T00:02:28.840Z,19.29
2018-07-06T00:05:13.579Z,19.29
2018-07-06T00:07:58.259Z,19.31
2018-07-06T00:10:42.854Z,19.25
2018-07-06T00:13:27.507Z,19.30
2018-07-06T00:16:12.193Z,19.23
2018-07-06T00:18:56.950Z,19.23
2018-07-06T00:21:41.593Z,19.25
2018-07-06T00:24:26.342Z,19.23
2018-07-06T00:27:10.959Z,19.24
2018-07-06T00:29:55.625Z,19.21
2018-07-06T00:32:40.130Z,19.25
2018-07-06T00:35:24.663Z,19.27
2018-07-06T00:38:09.302Z,19.20
2018-07-06T00:40:53.959Z,19.22
2018-07-06T00:43:38.668Z,19.16
2018-07-06T00:46:23.346Z,19.12
2018-07-06T00:49:08.043Z,19.11
2018-07-06T00:51:52.775Z,19.13
2018-07-06T00:54:37.405Z,19.08
2018-07-06T00:57:22.254Z,19.07
2018-07-06T01:00:06.845Z,19.01
2018-07-06T01:02:51.601Z,19.11
2018-07-06T01:05:36.260Z,19.12
2018-07-06T01:08:20.811Z,19.13
2018-07-06T01:11:05.440Z,19.13
2018-07-06T01:13:50.273Z,19.05
2018-07-06T01:16:34.740Z,19.10
2018-07-06T01:19:19.415Z,19.04
2018-07-06T01:22:04.056Z,19.03
2018-07-06T01:24:48.913Z,19.03
2018-07-06T01:27:33.549Z,19.08
2018-07-06T01:30:18.154Z,19.03
2018-07-06T01:33:02.867Z,19.05
2018-07-06T01:35:47.599Z,18.93
2018-07-06T01:38:32.224Z,18.88
2018-07-06T01:41:16.822Z,18.90
2018-07-06T01:44:01.475Z,18.98
2018-07-06T01:46:46.177Z,18.99
2018-07-06T01:49:30.680Z,18.96
2018-07-06T01:52:15.456Z,18.98
2018-07-06T01:55:00.049Z,18.97
2018-07-06T01:57:44.742Z,18.99
2018-07-06T02:00:29.380Z,18.95
2018-07-06T02:03:14.065Z,19.01
2018-07-06T02:05:58.675Z,19.00
2018-07-06T02:08:43.288Z,18.93
2018-07-06T02:11:28.078Z,18.93
2018-07-06T02:14:12.781Z,19.03
2018-07-06T02:16:57.445Z,19.01
2018-07-06T02:19:42.114Z,19.00
2018-07-06T02:22:26.663Z,18.90
2018-07-06T02:25:11.340Z,18.96
2018-07-06T02:27:56.186Z,18.90
2018-07-06T02:30:40.822Z,18.92
2018-07-06T02:33:25.546Z,18.88
2018-07-06T02:36:10.193Z,18.86
2018-07-06T02:38:54.869Z,18.88
2018-07-06T02:41:39.615Z,18.88
2018-07-06T02:44:24.099Z,18.89
2018-07-06T02:47:08.896Z,18.88
2018-07-06T02:49:53.404Z,18.85
2018-07-06T02:52:38.140Z,18.91
2018-07-06T02:55:22.689Z,18.95
2018-07-06T02:58:07.385Z,18.97
2018-07-06T03:00:52.043Z,18.95
2018-07-06T03:03:36.822Z,18.93
2018-07-06T03:06:21.368Z,18.92
2018-07-06T03:09:06.016Z,18.92
2018-07-06T03:11:50.570Z,18.88
2018-07-06T03:14:35.329Z,18.86
2018-07-06T03:17:19.999Z,18.89
2018-07-06T03:20:04.853Z,18.88
2018-07-06T03:22:49.486Z,18.86
2018-07-06T03:25:34.496Z,18.84
2018-07-06T03:28:19.202Z,18.83
2018-07-06T03:31:03.751Z,18.87
2018-07-06T03:33:48.632Z,18.89
2018-07-06T03:36:33.319Z,18.82
2018-07-06T03:39:18.079Z,18.92
2018-07-06T03:42:02.809Z,18.99
2018-07-06T03:44:47.470Z,18.93
2018-07-06T03:47:32.192Z,18.98
2018-07-06T03:50:16.761Z,19.02
2018-07-06T03:53:01.357Z,19.07
2018-07-06T03:55:45.891Z,19.10
2018-07-06T03:58:30.580Z,19.12
2018-07-06T04:01:15.235Z,19.05
2018-07-06T04:03:59.850Z,18.97
2018-07-06T04:06:44.485Z,19.00
2018-07-06T04:09:29.248Z,19.01
2018-07-06T04:12:14.083Z,19.00
2018-07-06T04:14:58.639Z,19.04
2018-07-06T04:17:43.329Z,19.00
2018-07-06T04:20:28.005Z,19.04
2018-07-06T04:23:12.643Z,19.04
2018-07-06T04:25:57.476Z,19.04
2018-07-06T04:28:42.099Z,18.99
2018-07-06T04:31:26.795Z,19.02
2018-07-06T04:34:11.439Z,18.97
2018-07-06T04:36:56.201Z,18.98
2018-07-06T04:39:40.941Z,18.93
2018-07-06T04:42:25.542Z,18.94
2018-07-06T04:45:10.221Z,19.02
2018-07-06T04:47:54.924Z,19.05
2018-07-06T04:50:39.743Z,19.02
2018-07-06T04:53:24.125Z,19.02
2018-07-06T04:56:08.809Z,19.10
2018-07-06T04:58:53.522Z,19.16
2018-07-06T05:01:38.198Z,19.20
2018-07-06T05:04:22.950Z,19.23
2018-07-06T05:07:07.437Z,19.24
2018-07-06T05:09:52.138Z,19.19
2018-07-06T05:12:36.851Z,19.20
2018-07-06T05:15:21.610Z,19.24
2018-07-06T05:18:06.391Z,19.25
2018-07-06T05:20:51.072Z,19.30
2018-07-06T05:23:35.673Z,19.24
2018-07-06T05:26:20.291Z,19.28
2018-07-06T05:29:04.882Z,19.30
2018-07-06T05:31:49.542Z,19.29
2018-07-06T05:34:34.016Z,19.31
2018-07-06T05:37:18.617Z,19.38
2018-07-06T05:40:03.306Z,19.42
2018-07-06T05:42:48.039Z,19.50
2018-07-06T05:45:32.773Z,19.48
2018-07-06T05:48:17.368Z,19.51
2018-07-06T05:51:02.078Z,19.48
2018-07-06T05:53:46.685Z,19.55
2018-07-06T05:56:31.430Z,19.62
2018-07-06T05:59:16.276Z,19.62
2018-07-06T06:02:00.816Z,19.53
2018-07-06T06:04:45.415Z,19.62
2018-07-06T06:07:21.181Z,19.66
2018-07-06T06:09:54.618Z,19.66
2018-07-06T06:12:28.874Z,19.68
2018-07-06T06:15:02.316Z,19.69
2018-07-06T06:17:35.867Z,19.70
2018-07-06T06:20:17.434Z,19.76
2018-07-06T06:22:50.828Z,19.80
2018-07-06T06:25:24.221Z,19.84
2018-07-06T06:27:57.608Z,19.82
2018-07-06T06:30:31.015Z,19.86
2018-07-06T06:33:04.499Z,19.87
2018-07-06T06:35:37.895Z,19.88
2018-07-06T06:38:11.320Z,19.91
2018-07-06T06:40:44.809Z,19.90
2018-07-06T06:43:18.208Z,19.85
2018-07-06T06:45:51.728Z,19.86
2018-07-06T06:48:25.169Z,19.86
2018-07-06T06:50:58.598Z,19.86
2018-07-06T06:53:32.015Z,19.73
2018-07-06T06:56:05.441Z,19.78
2018-07-06T06:58:39.287Z,19.73
2018-07-06T07:01:12.747Z,19.85
2018-07-06T07:03:46.155Z,19.98
2018-07-06T07:06:19.640Z,20.10
2018-07-06T07:08:53.030Z,20.21
2018-07-06T07:11:26.423Z,20.23
2018-07-06T07:13:59.871Z,20.23
2018-07-06T07:16:33.457Z,20.14
2018-07-06T07:19:06.893Z,20.14
2018-07-06T07:21:40.301Z,20.16
2018-07-06T07:24:13.782Z,20.14
2018-07-06T07:26:47.408Z,20.15
2018-07-06T07:29:20.789Z,20.15
2018-07-06T07:31:54.240Z,20.19
2018-07-06T07:34:27.702Z,20.28
2018-07-06T07:37:01.107Z,20.35
2018-07-06T07:39:34.484Z,20.23
2018-07-06T07:42:07.903Z,20.31
2018-07-06T07:44:41.300Z,20.37
2018-07-06T07:47:14.862Z,20.47
2018-07-06T07:49:48.263Z,20.45
2018-07-06T07:52:33.112Z,20.48
2018-07-06T07:55:06.539Z,20.44
2018-07-06T07:57:40.118Z,20.55
2018-07-06T08:00:13.564Z,20.65
2018-07-06T08:02:47.006Z,20.57
2018-07-06T08:05:20.435Z,20.54
2018-07-06T08:07:53.987Z,20.40
2018-07-06T08:10:27.422Z,20.40
2018-07-06T08:13:00.857Z,20.41
2018-07-06T08:15:34.261Z,20.43
2018-07-06T08:18:07.681Z,20.36
2018-07-06T08:20:41.085Z,20.30
2018-07-06T08:23:14.496Z,20.25
2018-07-06T08:25:47.928Z,20.19
2018-07-06T08:28:21.327Z,20.07
2018-07-06T08:30:54.721Z,19.89
2018-07-06T08:33:31.172Z,20.01
2018-07-06T08:36:20.588Z,20.05
2018-07-06T08:38:53.996Z,19.98
2018-07-06T08:41:27.360Z,20.06
2018-07-06T08:44:00.750Z,20.12
2018-07-06T08:46:34.152Z,20.27
2018-07-06T08:49:07.582Z,20.59
2018-07-06T08:51:40.980Z,20.81
2018-07-06T08:54:14.624Z,20.96
2018-07-06T08:56:48.238Z,20.94
2018-07-06T08:59:21.691Z,20.80
2018-07-06T09:01:55.144Z,20.75
2018-07-06T09:04:29.649Z,20.79
2018-07-06T09:07:03.172Z,20.87
2018-07-06T09:09:37.018Z,20.82
2018-07-06T09:12:11.149Z,20.90
2018-07-06T09:14:44.546Z,20.93
2018-07-06T09:17:19.155Z,21.05
2018-07-06T09:19:53.775Z,21.21
2018-07-06T09:22:26.724Z,21.34
2018-07-06T09:25:01.636Z,21.42
2018-07-06T09:27:35.140Z,21.38
2018-07-06T09:30:08.551Z,21.27
2018-07-06T09:32:41.963Z,21.23
2018-07-06T09:35:15.359Z,21.17
2018-07-06T09:37:48.752Z,21.29
2018-07-06T09:40:22.155Z,21.43
2018-07-06T09:42:55.521Z,21.39
2018-07-06T09:45:28.915Z,21.44
2018-07-06T09:48:02.279Z,21.40
2018-07-06T09:50:35.776Z,21.19
2018-07-06T09:53:09.167Z,21.14
2018-07-06T09:55:42.559Z,21.10
2018-07-06T09:58:15.971Z,21.10
2018-07-06T10:00:54.474Z,21.19
2018-07-06T10:03:28.452Z,21.15
2018-07-06T10:06:01.871Z,21.35
2018-07-06T10:08:35.238Z,21.51
2018-07-06T10:11:08.696Z,21.53
2018-07-06T10:13:42.115Z,21.53
2018-07-06T10:16:15.557Z,21.44
2018-07-06T10:18:48.910Z,21.49
2018-07-06T10:21:22.330Z,21.51
2018-07-06T10:23:55.750Z,21.57
2018-07-06T10:26:29.183Z,21.80
2018-07-06T10:29:29.295Z,21.96
2018-07-06T10:32:13.528Z,22.01
2018-07-06T10:34:46.957Z,21.97
2018-07-06T10:37:20.704Z,21.75
2018-07-06T10:39:54.314Z,21.78
2018-07-06T10:42:27.584Z,21.82
2018-07-06T10:45:01.194Z,21.81
2018-07-06T10:47:34.843Z,21.91
2018-07-06T10:50:08.526Z,22.11
2018-07-06T10:52:42.098Z,22.18
2018-07-06T10:55:15.737Z,22.11
2018-07-06T10:57:49.443Z,22.02
2018-07-06T11:00:22.868Z,22.25
2018-07-06T11:02:56.320Z,22.57
2018-07-06T11:05:29.739Z,22.57
2018-07-06T11:08:03.151Z,22.55
2018-07-06T11:10:36.562Z,22.65
2018-07-06T11:13:10.159Z,22.67
2018-07-06T11:15:43.656Z,23.08
2018-07-06T11:18:17.225Z,23.32
2018-07-06T11:20:50.854Z,23.30
2018-07-06T11:23:24.500Z,23.29
2018-07-06T11:25:58.133Z,23.44
2018-07-06T11:28:31.684Z,23.49
2018-07-06T11:31:05.341Z,23.43
2018-07-06T11:33:39.345Z,23.46
2018-07-06T11:36:12.913Z,23.68
2018-07-06T11:38:46.545Z,23.86
2018-07-06T11:41:20.208Z,23.89
2018-07-06T11:43:53.778Z,23.85
2018-07-06T11:46:27.364Z,23.81
2018-07-06T11:49:01.000Z,23.81
2018-07-06T11:51:36.038Z,24.20
2018-07-06T11:54:09.520Z,24.56
2018-07-06T11:56:42.950Z,24.52
2018-07-06T11:59:16.495Z,24.52
2018-07-06T12:01:49.985Z,24.73
2018-07-06T12:04:23.451Z,24.59
2018-07-06T12:06:56.942Z,24.39
2018-07-06T12:09:30.371Z,24.29
2018-07-06T12:12:03.883Z,24.22
2018-07-06T12:14:37.311Z,24.37
2018-07-06T12:17:10.775Z,24.52
2018-07-06T12:19:44.184Z,24.63
2018-07-06T12:22:17.648Z,24.91
2018-07-06T12:24:51.061Z,24.97
2018-07-06T12:27:24.526Z,24.91
2018-07-06T12:29:57.943Z,25.12
2018-07-06T12:32:31.336Z,25.16
2018-07-06T12:35:04.819Z,25.27
2018-07-06T12:37:38.832Z,25.12
2018-07-06T12:40:12.225Z,25.21
2018-07-06T12:42:45.640Z,25.37
2018-07-06T12:45:19.289Z,25.21
2018-07-06T12:47:52.942Z,25.30
2018-07-06T12:50:26.485Z,25.42
2018-07-06T12:52:59.880Z,25.67
2018-07-06T12:55:33.761Z,25.46
2018-07-06T12:58:07.281Z,25.50
2018-07-06T13:00:40.667Z,25.62
2018-07-06T13:03:14.135Z,25.69
2018-07-06T13:05:47.572Z,25.69
2018-07-06T13:08:20.969Z,25.69
2018-07-06T13:10:54.427Z,25.76
2018-07-06T13:13:27.940Z,25.77
2018-07-06T13:16:01.602Z,25.83
2018-07-06T13:18:35.299Z,25.99
2018-07-06T13:21:08.757Z,25.89
2018-07-06T13:23:42.153Z,25.90
2018-07-06T13:26:16.454Z,26.11
2018-07-06T13:28:51.031Z,26.24
2018-07-06T13:31:25.373Z,26.07
2018-07-06T13:33:59.553Z,26.00
2018-07-06T13:36:33.875Z,26.17
2018-07-06T13:39:08.416Z,26.31
2018-07-06T13:41:42.771Z,26.31
2018-07-06T13:44:17.258Z,26.52
2018-07-06T13:46:51.481Z,26.84
2018-07-06T13:49:26.194Z,27.02
2018-07-06T13:52:00.333Z,26.78
2018-07-06T13:54:34.784Z,26.50
2018-07-06T13:57:09.296Z,26.45
2018-07-06T13:59:43.839Z,26.38
2018-07-06T14:02:18.269Z,26.40
2018-07-06T14:04:52.583Z,26.27
2018-07-06T14:07:26.867Z,26.33
2018-07-06T14:10:01.269Z,26.36
2018-07-06T14:12:35.856Z,26.29
2018-07-06T14:15:10.175Z,26.34
2018-07-06T14:17:44.590Z,26.34
2018-07-06T14:20:18.052Z,26.32
2018-07-06T14:22:51.476Z,26.38
2018-07-06T14:25:25.064Z,26.29
2018-07-06T14:27:58.443Z,26.29
2018-07-06T14:30:31.941Z,26.30
2018-07-06T14:33:05.313Z,26.27
2018-07-06T14:35:38.739Z,26.16
2018-07-06T14:38:12.269Z,26.24
2018-07-06T14:40:45.704Z,26.16
2018-07-06T14:43:19.103Z,26.20
2018-07-06T14:45:52.480Z,26.19
2018-07-06T14:48:25.912Z,26.16
2018-07-06T14:50:59.307Z,26.00
2018-07-06T14:53:32.683Z,25.85
2018-07-06T14:56:06.159Z,25.84
2018-07-06T14:58:39.564Z,26.04
2018-07-06T15:01:12.976Z,25.97
2018-07-06T15:03:46.429Z,26.04
2018-07-06T15:06:19.809Z,26.01
2018-07-06T15:08:53.287Z,25.98
2018-07-06T15:11:26.673Z,26.03
2018-07-06T15:14:00.107Z,26.08
2018-07-06T15:16:33.468Z,26.08
2018-07-06T15:19:06.882Z,25.96
2018-07-06T15:21:40.289Z,25.92
2018-07-06T15:24:13.740Z,25.71
2018-07-06T15:26:47.243Z,25.73
2018-07-06T15:29:20.674Z,25.79
2018-07-06T15:31:54.079Z,25.74
2018-07-06T15:34:27.484Z,25.66
2018-07-06T15:37:00.908Z,25.67
2018-07-06T15:39:34.323Z,25.55
2018-07-06T15:42:07.880Z,25.66
2018-07-06T15:44:41.405Z,25.73
2018-07-06T15:47:14.784Z,25.59
2018-07-06T15:49:48.200Z,25.58
2018-07-06T15:52:21.658Z,25.62
2018-07-06T15:54:55.120Z,25.61
2018-07-06T15:57:28.644Z,25.59
2018-07-06T16:00:02.080Z,25.53
2018-07-06T16:02:36.300Z,25.47
2018-07-06T16:05:10.963Z,25.38
2018-07-06T16:07:44.411Z,25.38
2018-07-06T16:10:17.972Z,25.41
2018-07-06T16:12:51.358Z,25.34
2018-07-06T16:15:24.757Z,25.26
2018-07-06T16:17:58.113Z,25.23
2018-07-06T16:20:31.577Z,25.26
2018-07-06T16:23:05.029Z,25.15
2018-07-06T16:25:38.426Z,25.09
2018-07-06T16:28:11.860Z,25.05
2018-07-06T16:30:45.359Z,25.01
2018-07-06T16:33:18.809Z,24.94
2018-07-06T16:35:52.213Z,24.98
2018-07-06T16:38:25.616Z,25.18
2018-07-06T16:40:58.991Z,25.32
2018-07-06T16:43:32.448Z,25.18
2018-07-06T16:46:05.873Z,25.13
2018-07-06T16:48:39.297Z,25.03
2018-07-06T16:51:12.736Z,24.98
2018-07-06T16:53:46.260Z,24.89
2018-07-06T16:56:19.685Z,24.92
2018-07-06T16:58:53.106Z,24.91
2018-07-06T17:01:26.525Z,24.74
2018-07-06T17:04:00.028Z,24.99
2018-07-06T17:06:33.550Z,25.17
2018-07-06T17:09:07.074Z,25.09
2018-07-06T17:11:40.489Z,25.03
2018-07-06T17:14:13.929Z,25.02
2018-07-06T17:16:47.357Z,25.35
2018-07-06T17:19:20.819Z,25.17
2018-07-06T17:21:54.212Z,24.99
2018-07-06T17:24:27.629Z,24.75
2018-07-06T17:27:01.049Z,24.62
2018-07-06T17:29:34.445Z,24.62
2018-07-06T17:32:08.472Z,24.39
2018-07-06T17:34:41.881Z,24.31
2018-07-06T17:37:15.284Z,24.22
2018-07-06T17:39:48.725Z,24.00
2018-07-06T17:42:22.155Z,23.94
2018-07-06T17:44:55.584Z,23.85
2018-07-06T17:47:29.076Z,23.72
2018-07-06T17:50:02.500Z,23.67
2018-07-06T17:52:35.916Z,23.46
2018-07-06T17:55:09.312Z,23.33
2018-07-06T17:57:42.799Z,23.34
2018-07-06T18:00:16.209Z,23.20
2018-07-06T18:02:49.609Z,23.03
2018-07-06T18:05:24.219Z,22.98
2018-07-06T18:07:57.623Z,22.98
2018-07-06T18:10:31.143Z,22.83
2018-07-06T18:13:04.558Z,22.69
2018-07-06T18:15:38.039Z,22.48
2018-07-06T18:18:11.463Z,22.48
2018-07-06T18:20:44.926Z,22.24
2018-07-06T18:23:18.443Z,22.24
2018-07-06T18:25:51.829Z,22.19
2018-07-06T18:28:25.217Z,22.03
2018-07-06T18:30:58.658Z,21.96
2018-07-06T18:33:32.113Z,21.90
2018-07-06T18:36:06.223Z,21.75
2018-07-06T18:38:39.656Z,21.72
2018-07-06T18:41:13.215Z,21.59
2018-07-06T18:43:46.620Z,21.55
2018-07-06T18:46:20.045Z,21.44
2018-07-06T18:48:53.436Z,21.41
2018-07-06T18:51:26.852Z,21.37
2018-07-06T18:54:00.296Z,21.25
2018-07-06T18:56:33.744Z,21.07
2018-07-06T18:59:07.421Z,21.02
2018-07-06T19:01:40.901Z,20.92
2018-07-06T19:04:14.289Z,20.89
2018-07-06T19:06:47.896Z,20.85
2018-07-06T19:09:21.279Z,20.72
2018-07-06T19:11:54.704Z,20.63
2018-07-06T19:14:28.229Z,20.55
2018-07-06T19:17:01.805Z,20.45
2018-07-06T19:19:35.215Z,20.43
2018-07-06T19:22:08.743Z,20.33
2018-07-06T19:24:42.166Z,20.23
2018-07-06T19:27:15.612Z,20.19
2018-07-06T19:29:49.031Z,20.09
2018-07-06T19:32:22.525Z,19.97
2018-07-06T19:34:55.933Z,19.87
2018-07-06T19:37:30.331Z,19.77
2018-07-06T19:40:03.994Z,19.75
2018-07-06T19:42:37.483Z,19.59
2018-07-06T19:45:11.188Z,19.56
2018-07-06T19:47:44.773Z,19.50
2018-07-06T19:50:18.307Z,19.45
2018-07-06T19:52:51.855Z,19.43
2018-07-06T19:55:25.303Z,19.34
2018-07-06T19:57:58.752Z,19.24
2018-07-06T20:00:32.230Z,19.01
2018-07-06T20:03:05.751Z,18.84
2018-07-06T20:05:39.240Z,18.76
2018-07-06T20:08:12.636Z,18.77
2018-07-06T20:10:46.954Z,18.75
2018-07-06T20:13:20.421Z,18.69
2018-07-06T20:15:53.785Z,18.71
2018-07-06T20:18:27.169Z,18.63
2018-07-06T20:21:00.636Z,18.45
2018-07-06T20:23:34.000Z,18.44
2018-07-06T20:26:07.409Z,18.43
2018-07-06T20:28:40.792Z,18.37
2018-07-06T20:31:14.200Z,18.32
2018-07-06T20:33:47.604Z,18.28
2018-07-06T20:36:21.037Z,18.20
2018-07-06T20:38:54.438Z,18.16
2018-07-06T20:41:27.816Z,18.03
2018-07-06T20:44:01.227Z,17.94
2018-07-06T20:46:34.620Z,17.87
2018-07-06T20:49:08.101Z,17.83
2018-07-06T20:51:41.877Z,17.79
2018-07-06T20:54:15.335Z,17.79
2018-07-06T20:56:48.736Z,17.78
2018-07-06T20:59:22.236Z,17.73
2018-07-06T21:01:55.624Z,17.70
2018-07-06T21:04:29.027Z,17.67
2018-07-06T21:07:02.435Z,17.55
2018-07-06T21:09:35.880Z,17.53
2018-07-06T21:12:09.369Z,17.45
2018-07-06T21:14:42.901Z,17.35
2018-07-06T21:17:16.312Z,17.36
2018-07-06T21:19:50.723Z,17.35
2018-07-06T21:22:24.207Z,17.24
2018-07-06T21:24:57.580Z,17.15
2018-07-06T21:27:31.000Z,17.18
2018-07-06T21:30:04.548Z,17.11
2018-07-06T21:32:38.133Z,17.07
2018-07-06T21:35:11.556Z,17.05
2018-07-06T21:37:44.956Z,16.94
2018-07-06T21:40:18.365Z,16.87
2018-07-06T21:42:51.767Z,16.77
2018-07-06T21:45:25.160Z,16.75
2018-07-06T21:47:58.575Z,16.67
2018-07-06T21:50:31.983Z,16.58
2018-07-06T21:53:05.412Z,16.54
2018-07-06T21:55:38.790Z,16.46
2018-07-06T21:58:12.192Z,16.43
2018-07-06T22:00:45.591Z,16.33
2018-07-06T22:03:19.132Z,16.33
2018-07-06T22:05:52.512Z,16.22
2018-07-06T22:08:25.924Z,16.13
2018-07-06T22:10:59.314Z,16.09
2018-07-06T22:13:32.754Z,16.06
2018-07-06T22:16:06.148Z,16.11
2018-07-06T22:18:39.550Z,15.98
2018-07-06T22:21:12.932Z,15.93
2018-07-06T22:23:46.335Z,15.81
2018-07-06T22:26:19.711Z,15.73
2018-07-06T22:28:53.107Z,15.78
2018-07-06T22:31:26.515Z,15.72
2018-07-06T22:33:59.950Z,15.61
2018-07-06T22:36:33.336Z,15.63
2018-07-06T22:39:07.459Z,15.65
2018-07-06T22:41:40.850Z,15.69
2018-07-06T22:44:14.271Z,15.73
2018-07-06T22:46:47.652Z,15.67
2018-07-06T22:49:21.132Z,15.58
2018-07-06T22:51:54.540Z,15.58
2018-07-06T22:54:28.413Z,15.58
2018-07-06T22:57:01.833Z,15.50
2018-07-06T22:59:35.827Z,15.47
2018-07-06T23:02:09.320Z,15.45
2018-07-06T23:04:43.263Z,15.44
2018-07-06T23:07:17.279Z,15.43
2018-07-06T23:09:50.999Z,15.40
2018-07-06T23:12:24.392Z,15.37
2018-07-06T23:14:58.473Z,15.31
2018-07-06T23:17:32.681Z,15.24
2018-07-06T23:20:06.561Z,15.22
2018-07-06T23:23:05.594Z,15.18
2018-07-06T23:25:40.120Z,15.17
2018-07-06T23:28:13.731Z,15.09
2018-07-06T23:30:47.175Z,15.01
2018-07-06T23:33:20.567Z,15.08
2018-07-06T23:35:53.934Z,15.06
2018-07-06T23:38:27.359Z,15.03
2018-07-06T23:41:00.721Z,15.02
2018-07-06T23:43:34.103Z,15.01
2018-07-06T23:46:07.481Z,14.93
2018-07-06T23:48:40.875Z,14.89
2018-07-06T23:51:14.247Z,14.76
2018-07-06T23:53:47.705Z,14.71
2018-07-06T23:56:21.139Z,14.79
2018-07-06T23:58:54.526Z,14.81
